Nibulon 1 — UUAS4 — position and weather

sailwx.info

Track history (hours):
 
Tides and Currents Weather Stations Pressure Air Temp Water Temp Dewpoint Dewpoint Depression Visibility Wind Speed Wind Dir Waves Ship Positions

Nibulon 1

Last reported at 2017-Nov-18 16:07 UTC. Time now 2017-Nov-19 01:10 UTC.
Position N 48°04' E 035°05'.

Length 38 m; draft 2.6 m.

Type: Tug. MMSI: 272641000.

Date/timePositionNaut miles runAvg speedWind from/ knotsBaromVisibWave heightAir tempDewpointWater temp
2017-Nov-18 16:07N 48°04' E 035°05'1 4.6
2017-Nov-18 16:00N 48°03' E 035°06'2 4.5
2017-Nov-18 15:30N 48°01' E 035°08'2 4.5
2017-Nov-18 15:00N 47°59' E 035°08'2 4.5
2017-Nov-18 14:30N 47°57' E 035°07'2 4.6
2017-Nov-18 14:00N 47°55' E 035°07'2 3.5
2017-Nov-18 13:30N 47°53' E 035°06'0 0.5
2017-Nov-18 13:00N 47°53' E 035°06'1 2.1
2017-Nov-18 12:30N 47°52' E 035°05'0 0.3
2017-Nov-18 12:00N 47°52' E 035°05'0 0.2
2017-Nov-18 11:30N 47°52' E 035°05'2 4.2
2017-Nov-18 11:00N 47°50' E 035°07'2 4.3
2017-Nov-18 10:30N 47°49' E 035°09'0 0.5
2017-Nov-18 10:00N 47°49' E 035°09'2 3.9
2017-Nov-18 09:30N 47°50' E 035°07'2 4.3
2017-Nov-18 09:00N 47°52' E 035°05'1 1.9
2017-Nov-18 08:30N 47°53' E 035°06'1 1.9
2017-Nov-18 08:00N 47°52' E 035°05'0 0.2
2017-Nov-18 07:31N 47°52' E 035°05'2 3.4
2017-Nov-18 07:01N 47°50' E 035°06'1 2.5
2017-Nov-18 06:30N 47°49' E 035°08'1 2.8
2017-Nov-18 06:00N 47°48' E 035°09'1 3.0
2017-Nov-18 05:31N 47°47' E 035°09'2 4.0
2017-Nov-18 05:00N 47°45' E 035°10'2 3.8
2017-Nov-18 04:30N 47°43' E 035°09'2 4.1
2017-Nov-18 04:00N 47°41' E 035°08'2 4.4
2017-Nov-18 03:30N 47°39' E 035°07'2 4.4
2017-Nov-18 03:01N 47°38' E 035°04'2 4.4
2017-Nov-18 02:30N 47°36' E 035°03'2 4.2
2017-Nov-18 02:00N 47°34' E 035°01'6 4.5
2017-Nov-18 00:42N 47°33' E 034°52'1 4.2
2017-Nov-18 00:31N 47°32' E 034°51'2 4.4
2017-Nov-18 00:00N 47°31' E 034°48'6 4.3
2017-Nov-17 22:37N 47°33' E 034°40'1 4.4
2017-Nov-17 22:28N 47°33' E 034°39'5 4.4
2017-Nov-17 21:17N 47°35' E 034°31'8 4.2
2017-Nov-17 19:23N 47°32' E 034°20'2 4.4
2017-Nov-17 18:51N 47°31' E 034°17'2 4.4
2017-Nov-17 18:30N 47°31' E 034°15'7 4.5
2017-Nov-17 16:58N 47°27' E 034°06'23 4.6
2017-Nov-17 12:03N 47°08' E 033°49'1 4.5
2017-Nov-17 11:51N 47°07' E 033°49'73 2.4
2017-Nov-16 04:51N 46°33' E 032°13'1 3.1
2017-Nov-16 04:28N 46°33' E 032°12'2 4.5
2017-Nov-16 03:59N 46°32' E 032°09'2 4.5
2017-Nov-16 03:29N 46°32' E 032°05'2 4.2
2017-Nov-16 03:01N 46°32' E 032°03'2 4.5
2017-Nov-16 02:31N 46°33' E 031°59'2 4.6
2017-Nov-16 02:01N 46°34' E 031°56'2 4.6
2017-Nov-16 01:30N 46°34' E 031°53'2 4.6
2017-Nov-16 00:59N 46°35' E 031°50'2 4.7
2017-Nov-16 00:31N 46°35' E 031°47'2 4.6
2017-Nov-16 00:01N 46°35' E 031°43'2 4.6
2017-Nov-15 23:30N 46°35' E 031°40'2 4.3
2017-Nov-15 22:58N 46°36' E 031°37'1 1.8
2017-Nov-15 22:25N 46°36' E 031°35'0 0.5
2017-Nov-15 21:52N 46°36' E 031°35'2 5.1
2017-Nov-15 21:30N 46°35' E 031°33'3 4.0
2017-Nov-15 20:40N 46°36' E 031°28'1 5.1
2017-Nov-15 20:29N 46°35' E 031°27'5 4.9
2017-Nov-15 19:31N 46°35' E 031°20'0 5.0
2017-Nov-15 19:30N 46°35' E 031°20'4 0.1
2017-Nov-14 06:41N 46°34' E 031°15'0 1.3
2017-Nov-14 06:26N 46°34' E 031°15'2 4.2
2017-Nov-14 06:00N 46°34' E 031°18'4 4.2
2017-Nov-14 05:07N 46°34' E 031°23'1 3.9
2017-Nov-14 04:57N 46°35' E 031°24'2 4.3
2017-Nov-14 04:27N 46°35' E 031°27'2 4.0
2017-Nov-14 04:00N 46°36' E 031°29'2 3.7
2017-Nov-14 03:24N 46°35' E 031°32'1 3.4
2017-Nov-14 03:00N 46°35' E 031°34'1 3.0
2017-Nov-14 02:30N 46°36' E 031°35'0 0.2
2017-Nov-14 01:50N 46°36' E 031°36'0 1.0
2017-Nov-14 01:30N 46°36' E 031°36'2 3.4
2017-Nov-14 01:00N 46°35' E 031°38'2 3.6
2017-Nov-14 00:29N 46°35' E 031°41'2 3.7
2017-Nov-14 00:00N 46°35' E 031°44'2 3.7
2017-Nov-13 23:30N 46°35' E 031°46'2 3.6
2017-Nov-13 22:59N 46°35' E 031°49'2 3.7
2017-Nov-13 22:30N 46°35' E 031°52'2 3.8
2017-Nov-13 22:00N 46°34' E 031°54'  
2017-Nov-10 02:08N 47°34' E 034°29'1 3.3
2017-Nov-10 01:51N 47°35' E 034°30'4 3.3
2017-Nov-10 00:43N 47°34' E 034°35'1 3.4
2017-Nov-10 00:29N 47°33' E 034°37'4 3.3
2017-Nov-09 23:08N 47°32' E 034°43'1 3.3
2017-Nov-09 22:59N 47°32' E 034°43'2 3.2
2017-Nov-09 22:31N 47°31' E 034°46'2 3.1
2017-Nov-09 22:01N 47°31' E 034°48'2 3.1
2017-Nov-09 21:30N 47°32' E 034°50'7 3.2
2017-Nov-09 19:19N 47°34' E 035°00'1 3.4
2017-Nov-09 19:00N 47°34' E 035°02'2 3.5
2017-Nov-09 18:30N 47°36' E 035°03'2 3.3
2017-Nov-09 18:00N 47°37' E 035°04'2 3.6
2017-Nov-09 17:30N 47°39' E 035°06'2 3.4
2017-Nov-09 17:01N 47°40' E 035°07'2 3.7
2017-Nov-09 16:31N 47°42' E 035°08'2 3.6
2017-Nov-09 16:01N 47°43' E 035°09'2 3.5
2017-Nov-09 15:30N 47°45' E 035°10'2 3.7
2017-Nov-09 15:01N 47°47' E 035°09'2 3.3
2017-Nov-09 14:30N 47°49' E 035°09'0 0.0
2017-Nov-09 14:00N 47°49' E 035°09'0 0.3
2017-Nov-09 13:31N 47°49' E 035°09'2 4.9
2017-Nov-09 13:00N 47°50' E 035°06'2 3.6
2017-Nov-09 12:30N 47°52' E 035°05'0 0.2
2017-Nov-09 12:00N 47°52' E 035°06'1 2.1
2017-Nov-09 11:31N 47°53' E 035°06'0 0.4
2017-Nov-09 11:00N 47°53' E 035°06'1 1.8
2017-Nov-09 10:31N 47°52' E 035°05'1 1.5
2017-Nov-09 10:01N 47°51' E 035°05'3 6.4
2017-Nov-09 09:31N 47°49' E 035°09'0 0.8
2017-Nov-09 09:00N 47°49' E 035°09'2 4.4
2017-Nov-09 08:31N 47°50' E 035°06'2 3.7
2017-Nov-09 08:00N 47°52' E 035°05'0 0.6
2017-Nov-09 07:30N 47°52' E 035°05'0 1.0
2017-Nov-09 07:00N 47°52' E 035°06'1 1.6
2017-Nov-09 06:30N 47°53' E 035°06'0 0.0
2017-Nov-09 05:56N 47°53' E 035°06'0 0.0
2017-Nov-09 05:26N 47°53' E 035°06'0 0.0
2017-Nov-09 04:56N 47°53' E 035°06'0 0.0
2017-Nov-09 04:26N 47°53' E 035°06'0 0.3
2017-Nov-09 04:00N 47°53' E 035°06'1 2.4
2017-Nov-09 03:31N 47°54' E 035°07'2 3.4
2017-Nov-09 03:00N 47°56' E 035°07'2 3.5
2017-Nov-09 02:30N 47°58' E 035°07'2 3.4
2017-Nov-09 02:00N 47°59' E 035°08'2 3.4
2017-Nov-09 01:30N 48°01' E 035°08'2 3.1
2017-Nov-09 01:00N 48°02' E 035°07'2 3.3
2017-Nov-09 00:30N 48°04' E 035°05'  
Track history (hours):
 
Tides and Currents Weather Stations Pressure Air Temp Water Temp Dewpoint Dewpoint Depression Visibility Wind Speed Wind Dir Waves Ship Positions

Nibulon 1

Last reported at 2017-Nov-18 16:07 UTC. Time now 2017-Nov-19 01:10 UTC.
Position N 48°04' E 035°05'.

Length 38 m; draft 2.6 m.

Type: Tug. MMSI: 272641000.

Date/timePositionNaut miles runAvg speedWind from/ knotsBaromVisibWave heightAir tempDewpointWater temp
2017-Nov-18 16:07N 48°04' E 035°05'1 4.6
2017-Nov-18 16:00N 48°03' E 035°06'2 4.5
2017-Nov-18 15:30N 48°01' E 035°08'2 4.5
2017-Nov-18 15:00N 47°59' E 035°08'2 4.5
2017-Nov-18 14:30N 47°57' E 035°07'2 4.6
2017-Nov-18 14:00N 47°55' E 035°07'2 3.5
2017-Nov-18 13:30N 47°53' E 035°06'0 0.5
2017-Nov-18 13:00N 47°53' E 035°06'1 2.1
2017-Nov-18 12:30N 47°52' E 035°05'0 0.3
2017-Nov-18 12:00N 47°52' E 035°05'0 0.2
2017-Nov-18 11:30N 47°52' E 035°05'2 4.2
2017-Nov-18 11:00N 47°50' E 035°07'2 4.3
2017-Nov-18 10:30N 47°49' E 035°09'0 0.5
2017-Nov-18 10:00N 47°49' E 035°09'2 3.9
2017-Nov-18 09:30N 47°50' E 035°07'2 4.3
2017-Nov-18 09:00N 47°52' E 035°05'1 1.9
2017-Nov-18 08:30N 47°53' E 035°06'1 1.9
2017-Nov-18 08:00N 47°52' E 035°05'0 0.2
2017-Nov-18 07:31N 47°52' E 035°05'2 3.4
2017-Nov-18 07:01N 47°50' E 035°06'1 2.5
2017-Nov-18 06:30N 47°49' E 035°08'1 2.8
2017-Nov-18 06:00N 47°48' E 035°09'1 3.0
2017-Nov-18 05:31N 47°47' E 035°09'2 4.0
2017-Nov-18 05:00N 47°45' E 035°10'2 3.8
2017-Nov-18 04:30N 47°43' E 035°09'2 4.1
2017-Nov-18 04:00N 47°41' E 035°08'2 4.4
2017-Nov-18 03:30N 47°39' E 035°07'2 4.4
2017-Nov-18 03:01N 47°38' E 035°04'2 4.4
2017-Nov-18 02:30N 47°36' E 035°03'2 4.2
2017-Nov-18 02:00N 47°34' E 035°01'6 4.5
2017-Nov-18 00:42N 47°33' E 034°52'1 4.2
2017-Nov-18 00:31N 47°32' E 034°51'2 4.4
2017-Nov-18 00:00N 47°31' E 034°48'6 4.3
2017-Nov-17 22:37N 47°33' E 034°40'1 4.4
2017-Nov-17 22:28N 47°33' E 034°39'5 4.4
2017-Nov-17 21:17N 47°35' E 034°31'8 4.2
2017-Nov-17 19:23N 47°32' E 034°20'2 4.4
2017-Nov-17 18:51N 47°31' E 034°17'2 4.4
2017-Nov-17 18:30N 47°31' E 034°15'7 4.5
2017-Nov-17 16:58N 47°27' E 034°06'23 4.6
2017-Nov-17 12:03N 47°08' E 033°49'1 4.5
2017-Nov-17 11:51N 47°07' E 033°49'73 2.4
2017-Nov-16 04:51N 46°33' E 032°13'1 3.1
2017-Nov-16 04:28N 46°33' E 032°12'2 4.5
2017-Nov-16 03:59N 46°32' E 032°09'2 4.5
2017-Nov-16 03:29N 46°32' E 032°05'2 4.2
2017-Nov-16 03:01N 46°32' E 032°03'2 4.5
2017-Nov-16 02:31N 46°33' E 031°59'2 4.6
2017-Nov-16 02:01N 46°34' E 031°56'2 4.6
2017-Nov-16 01:30N 46°34' E 031°53'2 4.6
2017-Nov-16 00:59N 46°35' E 031°50'2 4.7
2017-Nov-16 00:31N 46°35' E 031°47'2 4.6
2017-Nov-16 00:01N 46°35' E 031°43'2 4.6
2017-Nov-15 23:30N 46°35' E 031°40'2 4.3
2017-Nov-15 22:58N 46°36' E 031°37'1 1.8
2017-Nov-15 22:25N 46°36' E 031°35'0 0.5
2017-Nov-15 21:52N 46°36' E 031°35'2 5.1
2017-Nov-15 21:30N 46°35' E 031°33'3 4.0
2017-Nov-15 20:40N 46°36' E 031°28'1 5.1
2017-Nov-15 20:29N 46°35' E 031°27'5 4.9
2017-Nov-15 19:31N 46°35' E 031°20'0 5.0
2017-Nov-15 19:30N 46°35' E 031°20'4 0.1
2017-Nov-14 06:41N 46°34' E 031°15'0 1.3
2017-Nov-14 06:26N 46°34' E 031°15'2 4.2
2017-Nov-14 06:00N 46°34' E 031°18'4 4.2
2017-Nov-14 05:07N 46°34' E 031°23'1 3.9
2017-Nov-14 04:57N 46°35' E 031°24'2 4.3
2017-Nov-14 04:27N 46°35' E 031°27'2 4.0
2017-Nov-14 04:00N 46°36' E 031°29'2 3.7
2017-Nov-14 03:24N 46°35' E 031°32'1 3.4
2017-Nov-14 03:00N 46°35' E 031°34'1 3.0
2017-Nov-14 02:30N 46°36' E 031°35'0 0.2
2017-Nov-14 01:50N 46°36' E 031°36'0 1.0
2017-Nov-14 01:30N 46°36' E 031°36'2 3.4
2017-Nov-14 01:00N 46°35' E 031°38'2 3.6
2017-Nov-14 00:29N 46°35' E 031°41'2 3.7
2017-Nov-14 00:00N 46°35' E 031°44'2 3.7
2017-Nov-13 23:30N 46°35' E 031°46'2 3.6
2017-Nov-13 22:59N 46°35' E 031°49'2 3.7
2017-Nov-13 22:30N 46°35' E 031°52'2 3.8
2017-Nov-13 22:00N 46°34' E 031°54'  
2017-Nov-10 02:08N 47°34' E 034°29'1 3.3
2017-Nov-10 01:51N 47°35' E 034°30'4 3.3
2017-Nov-10 00:43N 47°34' E 034°35'1 3.4
2017-Nov-10 00:29N 47°33' E 034°37'4 3.3
2017-Nov-09 23:08N 47°32' E 034°43'1 3.3
2017-Nov-09 22:59N 47°32' E 034°43'2 3.2
2017-Nov-09 22:31N 47°31' E 034°46'2 3.1
2017-Nov-09 22:01N 47°31' E 034°48'2 3.1
2017-Nov-09 21:30N 47°32' E 034°50'7 3.2
2017-Nov-09 19:19N 47°34' E 035°00'1 3.4
2017-Nov-09 19:00N 47°34' E 035°02'2 3.5
2017-Nov-09 18:30N 47°36' E 035°03'2 3.3
2017-Nov-09 18:00N 47°37' E 035°04'2 3.6
2017-Nov-09 17:30N 47°39' E 035°06'2 3.4
2017-Nov-09 17:01N 47°40' E 035°07'2 3.7
2017-Nov-09 16:31N 47°42' E 035°08'2 3.6
2017-Nov-09 16:01N 47°43' E 035°09'2 3.5
2017-Nov-09 15:30N 47°45' E 035°10'2 3.7
2017-Nov-09 15:01N 47°47' E 035°09'2 3.3
2017-Nov-09 14:30N 47°49' E 035°09'0 0.0
2017-Nov-09 14:00N 47°49' E 035°09'0 0.3
2017-Nov-09 13:31N 47°49' E 035°09'2 4.9
2017-Nov-09 13:00N 47°50' E 035°06'2 3.6
2017-Nov-09 12:30N 47°52' E 035°05'0 0.2
2017-Nov-09 12:00N 47°52' E 035°06'1 2.1
2017-Nov-09 11:31N 47°53' E 035°06'0 0.4
2017-Nov-09 11:00N 47°53' E 035°06'1 1.8
2017-Nov-09 10:31N 47°52' E 035°05'1 1.5
2017-Nov-09 10:01N 47°51' E 035°05'3 6.4
2017-Nov-09 09:31N 47°49' E 035°09'0 0.8
2017-Nov-09 09:00N 47°49' E 035°09'2 4.4
2017-Nov-09 08:31N 47°50' E 035°06'2 3.7
2017-Nov-09 08:00N 47°52' E 035°05'0 0.6
2017-Nov-09 07:30N 47°52' E 035°05'0 1.0
2017-Nov-09 07:00N 47°52' E 035°06'1 1.6
2017-Nov-09 06:30N 47°53' E 035°06'0 0.0
2017-Nov-09 05:56N 47°53' E 035°06'0 0.0
2017-Nov-09 05:26N 47°53' E 035°06'0 0.0
2017-Nov-09 04:56N 47°53' E 035°06'0 0.0
2017-Nov-09 04:26N 47°53' E 035°06'0 0.3
2017-Nov-09 04:00N 47°53' E 035°06'1 2.4
2017-Nov-09 03:31N 47°54' E 035°07'2 3.4
2017-Nov-09 03:00N 47°56' E 035°07'2 3.5
2017-Nov-09 02:30N 47°58' E 035°07'2 3.4
2017-Nov-09 02:00N 47°59' E 035°08'2 3.4
2017-Nov-09 01:30N 48°01' E 035°08'2 3.1
2017-Nov-09 01:00N 48°02' E 035°07'2 3.3
2017-Nov-09 00:30N 48°04' E 035°05'  

Dump ship's entire track history